• Join FlightAware (Why Join?)
  • Login
  • US Flag 
03:41PM EDT


 

Airport Tracker/Info


-or-


 

Live Flight TrackerFlight Track Log ✈ N440CT ✈ 04-May-2012 ✈ KHPN - KSDF

Flight Track Log - Related Links

Times and Time Zones

All times are in EDT time to prevent confusion due to time zone crossing. See the N440CT flight status page for this flight to view local times or setup timezone preferences in your user account.

Time Position Orientation Groundspeed Altitude Reporting Facility
EDT Latitude Longitude Course Direction KTS MPH feet Rate Location/Type
10:07AM 41.0333 -73.7167 315° West 183 211 2,000  Level New York TRACON
10:08AM 41.0833 -73.7833 252° West 214 246 3,900 2,280 Climbing New York TRACON
10:09AM 41.0667 -73.8500 246° West 245 282 6,600 1,980 Climbing New York TRACON
10:10AM 41.0333 -73.9500 242° Southwest 254 292 7,900 1,920 Climbing New York TRACON
10:11AM 41.0000 -74.0333 242° Southwest 261 300 10,500 2,580 Climbing New York TRACON
10:12AM 40.9667 -74.1167 258° West 274 315 13,100 2,400 Climbing New York TRACON
10:13AM 40.9500 -74.2167 246° West 281 323 15,400 1,980 Climbing New York TRACON
10:14AM 40.9167 -74.3167 248° West 293 337 17,100 480 Climbing New York TRACON
10:16AM 40.8381 -74.5672 245° Southwest 311 358 17,200 420 Climbing New York Center
10:17AM 40.8058 -74.6586 242° Southwest 311 358 18,700 1,500 Climbing New York Center
10:18AM 40.7606 -74.7708 242° Southwest 316 364 20,300 1,500 Climbing New York Center
10:19AM 40.7172 -74.8781 242° Southwest 321 369 21,800 1,440 Climbing New York Center
10:20AM 40.6739 -74.9847 241° Southwest 326 375 23,200 1,380 Climbing New York Center
10:21AM 40.6261 -75.0967 242° Southwest 333 383 24,600 1,260 Climbing New York Center
10:22AM 40.5803 -75.2086 241° Southwest 345 397 25,700 1,080 Climbing New York Center
10:23AM 40.5322 -75.3228 242° Southwest 351 404 26,800 1,080 Climbing New York Center
10:24AM 40.4836 -75.4453 239° Southwest 367 422 27,900 1,140 Climbing New York Center
10:25AM 40.4264 -75.5722 241° Southwest 390 449 29,100 1,020 Climbing New York Center
10:26AM 40.3803 -75.6833 240° Southwest 390 449 30,000 960 Climbing New York Center
10:27AM 40.3225 -75.8156 240° Southwest 390 449 31,100 960 Climbing New York Center
10:28AM 40.2739 -75.9261 242° Southwest 390 449 32,000 900 Climbing New York Center
10:29AM 40.2178 -76.0633 241° Southwest 390 449 33,000 900 Climbing New York Center
10:30AM 40.1711 -76.1739 243° Southwest 390 449 33,800 780 Climbing New York Center
10:31AM 40.1214 -76.3006 238° Southwest 396 456 34,600 900 Climbing New York Center
10:33AM 40.0014 -76.5531 238° Southwest 366 421 36,700 960 Climbing Washington Center
10:34AM 39.9464 -76.6658 239° Southwest 371 427 37,600 780 Climbing Washington Center
10:35AM 39.8997 -76.7681 239° Southwest 376 433 38,300 660 Climbing Washington Center
10:36AM 39.8464 -76.8833 239° Southwest 376 433 38,900 540 Climbing Washington Center
10:37AM 39.7867 -77.0119 238° Southwest 386 444 39,400 480 Climbing Washington Center
10:38AM 39.7308 -77.1294 238° Southwest 386 444 39,900 240 Climbing Washington Center
10:39AM 39.6753 -77.2442 239° Southwest 386 444 40,000  Climbing Washington Center
10:40AM 39.6172 -77.3694 238° Southwest 386 444 40,000  Level Washington Center
10:41AM 39.5592 -77.4919 239° Southwest 391 450 40,000  Level Washington Center
10:42AM 39.4986 -77.6219 238° Southwest 412 474 40,000  Level Washington Center
10:43AM 39.4358 -77.7519 238° Southwest 417 480 40,000  Level Washington Center
10:44AM 39.3753 -77.8764 243° Southwest 423 487 40,000  Level Washington Center
10:45AM 39.3247 -78.0061 244° Southwest 423 487 40,000  Level Washington Center
10:46AM 39.2742 -78.1386 253° West 408 470 40,000  Level Washington Center
10:47AM 39.2419 -78.2742 254° West 403 464 40,000  Level Washington Center
10:48AM 39.2142 -78.3992 252° West 403 464 40,000  Level Washington Center
10:49AM 39.1797 -78.5369 253° West 403 464 40,000  Level Washington Center
10:50AM 39.1469 -78.6750 252° West 403 464 40,000  Level Washington Center
10:51AM 39.1122 -78.8125 253° West 403 464 40,000  Level Washington Center
10:52AM 39.0792 -78.9528 252° West 408 470 40,000  Level Washington Center
10:53AM 39.0439 -79.0903 253° West 408 470 40,000  Level Washington Center
10:54AM 39.0106 -79.2303 252° West 408 470 40,000  Level Washington Center
10:55AM 38.9750 -79.3672 251° West 408 470 40,000  Level Washington Center
10:56AM 38.9372 -79.5067 256° West 413 475 40,000  Level Washington Center
10:57AM 38.9069 -79.6653 252° West 418 481 40,000  Level Washington Center
10:58AM 38.8731 -79.8019 252° West 413 475 40,000  Level Washington Center
10:59AM 38.8417 -79.9228 251° West 407 468 40,000  Level Washington Center
11:01AM 38.7517 -80.2550 252° West 382 440 40,000  Level Indianapolis Center
11:02AM 38.7178 -80.3894 252° West 394 453 40,000  Level Indianapolis Center
11:03AM 38.6836 -80.5214 251° West 394 453 40,000  Level Indianapolis Center
11:04AM 38.6494 -80.6506 252° West 394 453 40,000  Level Indianapolis Center
11:05AM 38.6150 -80.7822 251° West 389 448 40,000  Level Indianapolis Center
11:06AM 38.5786 -80.9139 251° West 389 448 40,000  Level Indianapolis Center
11:07AM 38.5439 -81.0450 251° West 389 448 40,000  Level Indianapolis Center
11:08AM 38.5069 -81.1792 251° West 389 448 40,000 -180 Level Indianapolis Center
11:09AM 38.4700 -81.3128 251° West 394 453 39,700 -660 Descending Indianapolis Center
11:10AM 38.4328 -81.4519 251° West 400 460 38,700 -900 Descending Indianapolis Center
11:11AM 38.3975 -81.5803 252° West 413 475 38,000 -360 Descending Indianapolis Center
11:12AM 38.3622 -81.7189 250° West 419 482 38,000 -180 Level Indianapolis Center
11:13AM 38.3228 -81.8603 252° West 424 488 37,700 -660 Descending Indianapolis Center
11:14AM 38.2892 -81.9933 249° West 419 482 36,700 -1,080 Descending Indianapolis Center
11:15AM 38.2492 -82.1264 251° West 414 476 35,600 -900 Descending Indianapolis Center
11:16AM 38.2131 -82.2592 250° West 407 468 35,000 -300 Descending Indianapolis Center
11:17AM 38.1747 -82.3919 251° West 407 468 35,000  Level Indianapolis Center
11:18AM 38.1344 -82.5406 250° West 407 468 35,000 -540 Level Indianapolis Center
11:19AM 38.0939 -82.6783 250° West 407 468 34,000 -1,200 Descending Indianapolis Center
11:20AM 38.0572 -82.8078 250° West 407 468 32,600 -1,020 Descending Indianapolis Center
11:21AM 38.0183 -82.9400 249° West 407 468 32,000 -300 Descending Indianapolis Center
11:22AM 37.9794 -83.0694 250° West 407 468 32,000  Level Indianapolis Center
11:23AM 37.9422 -83.1989 249° West 402 463 32,000  Level Indianapolis Center
11:24AM 37.9031 -83.3306 249° West 402 463 32,000 -180 Level Indianapolis Center
11:25AM 37.8636 -83.4622 250° West 402 463 31,700 -660 Descending Indianapolis Center
11:26AM 37.8239 -83.5992 249° West 412 474 30,700 -1,020 Descending Indianapolis Center
11:27AM 37.7800 -83.7408 250° West 430 495 29,700 -1,080 Descending Indianapolis Center
11:28AM 37.7378 -83.8853 250° West 435 501 28,600 -1,140 Descending Indianapolis Center
11:29AM 37.6958 -84.0269 248° West 435 501 27,500 -1,080 Descending Indianapolis Center
11:30AM 37.6533 -84.1603 250° West 429 494 26,500 -1,020 Descending Indianapolis Center
11:31AM 37.6150 -84.2911 241° Southwest 417 480 25,500 -1,080 Descending Indianapolis Center
11:32AM 37.5686 -84.3981 228° Southwest 378 435 24,400 -1,200 Descending Indianapolis Center
11:33AM 37.5031 -84.4889 227° Southwest 354 407 23,200 -1,620 Descending Indianapolis Center
11:34AM 37.4397 -84.5744 238° Southwest 346 398 21,200 -1,980 Descending Indianapolis Center
11:35AM 37.3953 -84.6656 280° West 334 384 19,300 -2,340 Descending Indianapolis Center
11:36AM 37.4089 -84.7675 331° Northwest 291 335 16,600 -2,700 Descending Indianapolis Center
11:37AM 37.4814 -84.8186 327° Northwest 294 338 14,000 -2,220 Descending Indianapolis Center
11:38AM 37.5475 -84.8719 328° Northwest 298 343 12,200 -1,500 Descending Indianapolis Center
11:39AM 37.6094 -84.9203 323° Northwest 273 314 11,000 -600 Descending Indianapolis Center
11:40AM 37.6714 -84.9792 314° West 273 314 11,000 -240 Level Indianapolis Center
11:41AM 37.7267 -85.0511 310° West 278 320 10,600 -540 Descending Indianapolis Center
11:42AM 37.7739 -85.1231 315° West 278 320 10,000 -300 Descending Indianapolis Center
11:43AM 37.8272 -85.1900 283° West 273 314 10,000 -480 Level Indianapolis Center
11:44AM 37.8444 -85.2850 276° West 273 314 9,100 -1,320 Descending Indianapolis Center
11:45AM 37.8514 -85.3761 278° West 266 306 7,500 -1,560 Descending FAA TRACON SMA TRACON (SMA)
11:46AM 37.8581 -85.4328 322° Northwest 266 306 6,600 -1,140 Descending FAA TRACON SMA TRACON (SMA)
11:47AM 37.9019 -85.4761 330° Northwest 263 303 6,000 -480 Descending FAA TRACON SMA TRACON (SMA)
11:47AM 37.9400 -85.5039 331° Northwest 256 295 6,000  Level FAA TRACON SMA TRACON (SMA)
11:48AM 37.9844 -85.5356 337° Northwest 267 307 6,000  Level FAA TRACON SMA TRACON (SMA)
11:49AM 38.0531 -85.5731 342° North 268 308 6,000  Level FAA TRACON SMA TRACON (SMA)
11:50AM 38.0958 -85.5911 350° North 264 304 6,000  Level FAA TRACON SMA TRACON (SMA)
11:50AM 38.1458 -85.6025 353° North 264 304 6,000  Level FAA TRACON SMA TRACON (SMA)
11:51AM 38.1961 -85.6103 352° North 263 303 6,000 -180 Level FAA TRACON SMA TRACON (SMA)
11:52AM 38.2408 -85.6181 351° North 264 304 5,800 -720 Descending FAA TRACON SMA TRACON (SMA)
11:52AM 38.2903 -85.6275 353° North 256 295 5,100 -600 Descending FAA TRACON SMA TRACON (SMA)
11:53AM 38.3319 -85.6339 354° North 211 243 5,000 -600 Descending FAA TRACON SMA TRACON (SMA)
11:54AM 38.3686 -85.6386 340° North 187 215 4,300 -780 Descending FAA TRACON SMA TRACON (SMA)
11:54AM 38.3961 -85.6514 263° West 187 215 4,000 -240 Descending FAA TRACON SMA TRACON (SMA)
11:55AM 38.3922 -85.6933 258° West 177 204 4,000  Level FAA TRACON SMA TRACON (SMA)
11:56AM 38.3850 -85.7353 252° West 174 200 4,000  Level FAA TRACON SMA TRACON (SMA)
11:56AM 38.3761 -85.7708 191° South 178 205 4,000 -180 Level FAA TRACON SMA TRACON (SMA)
11:57AM 38.3422 -85.7792 170° South 183 211 3,800 -840 Descending FAA TRACON SMA TRACON (SMA)
11:58AM 38.3072 -85.7717 166° South 182 209 2,900 -1,080 Descending FAA TRACON SMA TRACON (SMA)
11:58AM 38.2794 -85.7631 166° South 166 191 2,400 -780 Descending FAA TRACON SMA TRACON (SMA)